TEJ605 MDPC-SCEL
Flight info
| Callsign | TEJ605 |
|---|---|
| Flight time | N/A |
| Altitude | 39000 |
| Route | POKAK2T POKAK UL216 BEXER/N0485F400 UL325 TAKEK/N0482F410 UL793 KAKER/N0485F400 UL793 DAVEX UL216 PAY/N0484F410 UL216 AKPEP UL309 GRAFO/N0485F400 UL309 GEKOR/N0480F430 UL309 EMPEX/N0485F410 UL309 LOA UQ815 MORMI UQ803 ISGUD UL302 SIMOK SIMOK7B |
| Aircraft | A359/H-SDE2E3GHIJ3J4J5LM1ORWXY/LB1D1 |
Departure
| Time | 2026-03-20 09:40 |
|---|---|
| Airport | Punta Cana International Airport (MDPC) |
Arrival
| Time | N/A |
|---|---|
| Airport | Comodoro Arturo Merino Benítez International Airport (SCEL) |
| Time | Latitude | Longitude | Altitude | Speed | Heading |
|---|---|---|---|---|---|
| 2026-03-20 09:25 | 18.56399 | -68.36154 | 50 ft | 0 kts | 176° |
| 2026-03-20 09:29 | 18.56386 | -68.36153 | 53 ft | 1 kts | 176° |
| 2026-03-20 09:30 | 18.56402 | -68.36154 | 49 ft | 3 kts | 177° |
| 2026-03-20 09:30 | 18.56423 | -68.36155 | 48 ft | 3 kts | 178° |
| 2026-03-20 09:30 | 18.56443 | -68.36156 | 55 ft | 3 kts | 175° |
| 2026-03-20 09:30 | 18.56458 | -68.36158 | 48 ft | 3 kts | 182° |
| 2026-03-20 09:31 | 18.56475 | -68.36156 | 48 ft | 3 kts | 208° |
| 2026-03-20 09:31 | 18.56486 | -68.36149 | 48 ft | 3 kts | 242° |
| 2026-03-20 09:31 | 18.56491 | -68.36133 | 48 ft | 3 kts | 268° |
| 2026-03-20 09:31 | 18.56491 | -68.36112 | 50 ft | 3 kts | 275° |
| 2026-03-20 09:32 | 18.56489 | -68.36091 | 49 ft | 3 kts | 273° |
| 2026-03-20 09:32 | 18.56488 | -68.36073 | 51 ft | 1 kts | 266° |
| 2026-03-20 09:32 | 18.56487 | -68.36082 | 50 ft | 6 kts | 266° |
| 2026-03-20 09:32 | 18.56487 | -68.36086 | 50 ft | 0 kts | 266° |
| 2026-03-20 09:35 | 18.56486 | -68.36089 | 50 ft | 2 kts | 266° |
| 2026-03-20 09:35 | 18.56483 | -68.36142 | 48 ft | 10 kts | 266° |
| 2026-03-20 09:35 | 18.56477 | -68.36225 | 55 ft | 12 kts | 265° |
| 2026-03-20 09:36 | 18.56469 | -68.36324 | 55 ft | 15 kts | 265° |
| 2026-03-20 09:36 | 18.56459 | -68.36438 | 51 ft | 17 kts | 265° |
| 2026-03-20 09:36 | 18.56461 | -68.36565 | 51 ft | 18 kts | 284° |
| 2026-03-20 09:36 | 18.56516 | -68.36687 | 53 ft | 19 kts | 287° |
| 2026-03-20 09:37 | 18.56517 | -68.36833 | 55 ft | 21 kts | 265° |
| 2026-03-20 09:37 | 18.56502 | -68.36991 | 51 ft | 22 kts | 264° |
| 2026-03-20 09:37 | 18.56487 | -68.37161 | 57 ft | 24 kts | 265° |
| 2026-03-20 09:37 | 18.56472 | -68.37341 | 57 ft | 25 kts | 265° |
| 2026-03-20 09:38 | 18.56456 | -68.37526 | 52 ft | 23 kts | 265° |
| 2026-03-20 09:38 | 18.56442 | -68.37697 | 57 ft | 23 kts | 266° |
| 2026-03-20 09:38 | 18.56523 | -68.37786 | 53 ft | 18 kts | 350° |
| 2026-03-20 09:38 | 18.56597 | -68.37784 | 51 ft | 5 kts | 37° |
| 2026-03-20 09:39 | 18.56615 | -68.37722 | 56 ft | 23 kts | 81° |
| 2026-03-20 09:39 | 18.56653 | -68.37301 | 55 ft | 93 kts | 85° |
| 2026-03-20 09:39 | 18.56732 | -68.36405 | 56 ft | 151 kts | 84° |
| 2026-03-20 09:39 | 18.56851 | -68.35268 | 635 ft | 153 kts | 87° |
| 2026-03-20 09:40 | 18.56948 | -68.34158 | 1334 ft | 150 kts | 90° |
| 2026-03-20 09:40 | 18.57029 | -68.33029 | 1848 ft | 165 kts | 89° |
| 2026-03-20 09:40 | 18.57124 | -68.31732 | 2126 ft | 190 kts | 89° |
| 2026-03-20 09:40 | 18.57168 | -68.30251 | 2405 ft | 212 kts | 98° |
| 2026-03-20 09:41 | 18.56562 | -68.28846 | 2783 ft | 222 kts | 134° |
| 2026-03-20 09:41 | 18.55407 | -68.27668 | 3199 ft | 241 kts | 140° |
| 2026-03-20 09:41 | 18.54123 | -68.26482 | 3874 ft | 248 kts | 140° |
| 2026-03-20 09:41 | 18.52665 | -68.25492 | 4583 ft | 253 kts | 158° |
| 2026-03-20 09:42 | 18.50920 | -68.25209 | 5308 ft | 258 kts | 183° |
| 2026-03-20 09:42 | 18.49125 | -68.25413 | 6118 ft | 261 kts | 187° |
| 2026-03-20 09:42 | 18.47307 | -68.25676 | 6889 ft | 266 kts | 187° |
| 2026-03-20 09:42 | 18.45461 | -68.25931 | 7712 ft | 270 kts | 187° |
| 2026-03-20 09:43 | 18.43583 | -68.26180 | 8567 ft | 274 kts | 187° |
| 2026-03-20 09:43 | 18.41702 | -68.26425 | 9384 ft | 279 kts | 187° |
| 2026-03-20 09:43 | 18.39761 | -68.26675 | 10172 ft | 284 kts | 188° |
| 2026-03-20 09:43 | 18.37741 | -68.26934 | 10599 ft | 303 kts | 188° |
| 2026-03-20 09:44 | 18.35577 | -68.27212 | 10903 ft | 323 kts | 188° |
| 2026-03-20 09:44 | 18.33279 | -68.27504 | 11222 ft | 342 kts | 188° |
| 2026-03-20 09:44 | 18.30862 | -68.27811 | 11605 ft | 356 kts | 188° |
| 2026-03-20 09:44 | 18.28377 | -68.28124 | 12169 ft | 363 kts | 188° |
| 2026-03-20 09:45 | 18.25855 | -68.28442 | 12806 ft | 367 kts | 188° |
| 2026-03-20 09:45 | 18.23301 | -68.28765 | 13406 ft | 372 kts | 188° |
| 2026-03-20 09:45 | 18.20721 | -68.29091 | 13997 ft | 376 kts | 188° |
| 2026-03-20 09:45 | 18.18150 | -68.29416 | 14523 ft | 379 kts | 188° |
| 2026-03-20 09:46 | 18.15520 | -68.29748 | 15071 ft | 382 kts | 189° |
| 2026-03-20 09:46 | 18.12872 | -68.30083 | 15607 ft | 385 kts | 189° |
| 2026-03-20 09:46 | 18.10199 | -68.30421 | 16125 ft | 388 kts | 189° |
| 2026-03-20 09:46 | 18.07500 | -68.30762 | 16671 ft | 391 kts | 189° |
| 2026-03-20 09:47 | 18.04790 | -68.31104 | 17192 ft | 394 kts | 189° |
| 2026-03-20 09:47 | 18.02053 | -68.31450 | 17716 ft | 397 kts | 189° |
| 2026-03-20 09:47 | 17.99301 | -68.31797 | 18213 ft | 401 kts | 190° |
| 2026-03-20 09:47 | 17.96517 | -68.32148 | 18672 ft | 404 kts | 190° |
| 2026-03-20 09:48 | 17.93723 | -68.32501 | 19124 ft | 406 kts | 190° |
| 2026-03-20 09:48 | 17.90953 | -68.32850 | 19584 ft | 408 kts | 190° |
| 2026-03-20 09:48 | 17.88125 | -68.33206 | 20035 ft | 410 kts | 190° |
| 2026-03-20 09:48 | 17.85280 | -68.33565 | 20467 ft | 413 kts | 190° |
| 2026-03-20 09:49 | 17.82422 | -68.33925 | 20937 ft | 415 kts | 191° |
| 2026-03-20 09:49 | 17.79545 | -68.34287 | 21376 ft | 418 kts | 191° |
| 2026-03-20 09:49 | 17.76649 | -68.34651 | 21838 ft | 420 kts | 191° |
| 2026-03-20 09:49 | 17.73737 | -68.35018 | 22274 ft | 423 kts | 191° |
| 2026-03-20 09:50 | 17.70805 | -68.35387 | 22726 ft | 426 kts | 191° |
| 2026-03-20 09:50 | 17.67854 | -68.35758 | 23153 ft | 428 kts | 191° |
| 2026-03-20 09:50 | 17.64929 | -68.36126 | 23569 ft | 430 kts | 191° |
| 2026-03-20 09:50 | 17.61947 | -68.36501 | 23898 ft | 434 kts | 191° |
| 2026-03-20 09:51 | 17.58938 | -68.36879 | 24211 ft | 437 kts | 191° |
| 2026-03-20 09:51 | 17.55909 | -68.37259 | 24554 ft | 440 kts | 191° |
| 2026-03-20 09:51 | 17.52855 | -68.37643 | 24915 ft | 443 kts | 191° |
| 2026-03-20 09:51 | 17.49783 | -68.38028 | 25267 ft | 447 kts | 191° |
| 2026-03-20 09:52 | 17.46684 | -68.38417 | 25662 ft | 450 kts | 192° |
| 2026-03-20 09:52 | 17.43602 | -68.38804 | 26061 ft | 454 kts | 192° |
| 2026-03-20 09:52 | 17.40456 | -68.39198 | 26475 ft | 457 kts | 192° |
| 2026-03-20 09:52 | 17.37286 | -68.39595 | 26896 ft | 461 kts | 192° |
| 2026-03-20 09:53 | 17.34093 | -68.39996 | 27291 ft | 464 kts | 192° |
| 2026-03-20 09:53 | 17.30873 | -68.40399 | 27693 ft | 468 kts | 192° |
| 2026-03-20 09:53 | 17.27623 | -68.40806 | 28097 ft | 472 kts | 192° |
| 2026-03-20 09:53 | 17.24356 | -68.41215 | 28485 ft | 475 kts | 192° |
| 2026-03-20 09:54 | 17.21058 | -68.41627 | 28892 ft | 479 kts | 192° |
| 2026-03-20 09:54 | 17.17740 | -68.42042 | 29280 ft | 482 kts | 192° |
| 2026-03-20 09:54 | 17.14394 | -68.42460 | 29671 ft | 486 kts | 193° |
| 2026-03-20 09:54 | 17.11071 | -68.42876 | 30025 ft | 489 kts | 193° |
| 2026-03-20 09:55 | 17.07684 | -68.43298 | 30357 ft | 491 kts | 193° |
| 2026-03-20 09:55 | 17.04288 | -68.43722 | 30732 ft | 493 kts | 192° |
| 2026-03-20 09:55 | 17.00879 | -68.44146 | 31085 ft | 494 kts | 192° |
| 2026-03-20 09:55 | 16.97460 | -68.44573 | 31426 ft | 495 kts | 192° |
| 2026-03-20 09:56 | 16.94037 | -68.44999 | 31744 ft | 497 kts | 192° |
| 2026-03-20 09:56 | 16.90595 | -68.45428 | 32068 ft | 498 kts | 192° |
| 2026-03-20 09:56 | 16.87150 | -68.45857 | 32422 ft | 498 kts | 192° |
| 2026-03-20 09:56 | 16.83724 | -68.46283 | 32911 ft | 495 kts | 192° |
| 2026-03-20 09:57 | 16.80356 | -68.46701 | 33404 ft | 492 kts | 192° |
| 2026-03-20 09:57 | 16.76965 | -68.47122 | 33893 ft | 489 kts | 192° |
| 2026-03-20 09:57 | 16.73591 | -68.47542 | 34283 ft | 487 kts | 192° |
| 2026-03-20 09:57 | 16.70230 | -68.47960 | 34636 ft | 486 kts | 192° |
| 2026-03-20 09:58 | 16.66875 | -68.48378 | 34977 ft | 485 kts | 192° |
| 2026-03-20 09:58 | 16.63526 | -68.48794 | 35323 ft | 484 kts | 192° |
| 2026-03-20 09:58 | 16.60196 | -68.49208 | 35667 ft | 482 kts | 192° |
| 2026-03-20 09:58 | 16.56866 | -68.49622 | 36004 ft | 481 kts | 192° |
| 2026-03-20 09:59 | 16.53545 | -68.50034 | 36342 ft | 480 kts | 192° |
| 2026-03-20 09:59 | 16.50280 | -68.50440 | 36647 ft | 479 kts | 192° |
| 2026-03-20 09:59 | 16.46975 | -68.50850 | 36964 ft | 478 kts | 192° |
| 2026-03-20 09:59 | 16.43678 | -68.51259 | 37273 ft | 477 kts | 192° |
| 2026-03-20 10:00 | 16.40384 | -68.51668 | 37573 ft | 476 kts | 192° |
| 2026-03-20 10:00 | 16.37100 | -68.52075 | 37871 ft | 475 kts | 192° |
| 2026-03-20 10:00 | 16.33822 | -68.52481 | 38161 ft | 474 kts | 192° |
| 2026-03-20 10:00 | 16.30553 | -68.52886 | 38434 ft | 473 kts | 192° |
| 2026-03-20 10:01 | 16.27283 | -68.53291 | 38710 ft | 472 kts | 192° |
| 2026-03-20 10:01 | 16.24030 | -68.53693 | 38909 ft | 472 kts | 192° |
| 2026-03-20 10:01 | 16.17555 | -68.54495 | 38959 ft | 471 kts | 192° |
| 2026-03-20 10:02 | 16.11045 | -68.55301 | 38959 ft | 471 kts | 192° |
| 2026-03-20 10:02 | 16.04525 | -68.56107 | 38955 ft | 472 kts | 192° |
| 2026-03-20 10:03 | 15.97957 | -68.56190 | 38961 ft | 483 kts | 176° |
| 2026-03-20 10:03 | 15.91316 | -68.54941 | 38952 ft | 487 kts | 173° |
| 2026-03-20 10:04 | 15.84683 | -68.53475 | 38950 ft | 488 kts | 173° |
| 2026-03-20 10:04 | 15.78045 | -68.52014 | 38949 ft | 488 kts | 173° |
| 2026-03-20 10:05 | 15.71390 | -68.50586 | 38956 ft | 488 kts | 173° |
| 2026-03-20 10:05 | 15.64777 | -68.49183 | 38948 ft | 488 kts | 173° |
| 2026-03-20 10:06 | 15.58124 | -68.47776 | 38953 ft | 488 kts | 173° |
| 2026-03-20 10:06 | 15.51464 | -68.46366 | 38948 ft | 488 kts | 173° |
| 2026-03-20 10:07 | 15.44802 | -68.44956 | 38944 ft | 488 kts | 173° |
| 2026-03-20 10:07 | 15.38187 | -68.43557 | 38953 ft | 489 kts | 173° |
| 2026-03-20 10:08 | 15.31529 | -68.42149 | 38952 ft | 488 kts | 173° |
| 2026-03-20 10:08 | 15.24867 | -68.40742 | 38948 ft | 488 kts | 173° |
| 2026-03-20 10:09 | 15.18211 | -68.39340 | 38948 ft | 488 kts | 173° |
| 2026-03-20 10:09 | 15.11593 | -68.37964 | 38944 ft | 488 kts | 173° |
| 2026-03-20 10:10 | 15.04930 | -68.36583 | 38945 ft | 488 kts | 173° |
| 2026-03-20 10:10 | 14.98277 | -68.35204 | 38943 ft | 488 kts | 173° |
| 2026-03-20 10:11 | 14.91620 | -68.33823 | 38942 ft | 488 kts | 173° |
| 2026-03-20 10:11 | 14.85011 | -68.32452 | 38941 ft | 488 kts | 173° |
| 2026-03-20 10:12 | 14.78352 | -68.31072 | 38947 ft | 488 kts | 173° |
| 2026-03-20 10:12 | 14.71700 | -68.29697 | 38945 ft | 488 kts | 173° |
| 2026-03-20 10:13 | 14.65041 | -68.28308 | 38950 ft | 488 kts | 172° |
| 2026-03-20 10:13 | 14.58392 | -68.26912 | 38944 ft | 488 kts | 172° |
| 2026-03-20 10:14 | 14.51786 | -68.25529 | 38944 ft | 488 kts | 172° |
| 2026-03-20 10:14 | 14.45126 | -68.24138 | 38942 ft | 488 kts | 172° |
| 2026-03-20 10:15 | 14.38469 | -68.22749 | 38946 ft | 488 kts | 172° |
| 2026-03-20 10:15 | 14.31806 | -68.21361 | 38943 ft | 489 kts | 172° |
| 2026-03-20 10:16 | 14.25133 | -68.20005 | 38944 ft | 487 kts | 175° |
| 2026-03-20 10:16 | 14.18479 | -68.19900 | 39161 ft | 479 kts | 192° |
| 2026-03-20 10:17 | 14.15248 | -68.20626 | 39373 ft | 473 kts | 201° |
| 2026-03-20 10:17 | 14.12156 | -68.21735 | 39600 ft | 470 kts | 204° |
| 2026-03-20 10:17 | 14.09113 | -68.22953 | 39803 ft | 468 kts | 205° |
| 2026-03-20 10:17 | 14.06094 | -68.24220 | 39927 ft | 469 kts | 205° |
| 2026-03-20 10:18 | 14.00085 | -68.26783 | 39940 ft | 467 kts | 205° |
| 2026-03-20 10:18 | 13.94110 | -68.29305 | 39942 ft | 467 kts | 205° |
| 2026-03-20 10:19 | 13.88080 | -68.31819 | 39943 ft | 468 kts | 205° |
| 2026-03-20 10:19 | 13.82046 | -68.34325 | 39939 ft | 468 kts | 205° |
| 2026-03-20 10:20 | 13.76004 | -68.36831 | 39940 ft | 468 kts | 205° |
| 2026-03-20 10:20 | 13.69996 | -68.39315 | 39940 ft | 469 kts | 205° |
| 2026-03-20 10:21 | 13.63940 | -68.41818 | 39947 ft | 469 kts | 205° |
| 2026-03-20 10:21 | 13.57882 | -68.44323 | 39944 ft | 469 kts | 205° |
| 2026-03-20 10:22 | 13.51822 | -68.46829 | 39940 ft | 470 kts | 205° |
| 2026-03-20 10:22 | 13.45753 | -68.49210 | 39941 ft | 472 kts | 199° |
| 2026-03-20 10:23 | 13.39224 | -68.50191 | 40203 ft | 479 kts | 182° |
| 2026-03-20 10:23 | 13.35899 | -68.49883 | 40405 ft | 482 kts | 173° |
| 2026-03-20 10:23 | 13.32598 | -68.49245 | 40608 ft | 482 kts | 171° |
| 2026-03-20 10:24 | 13.29328 | -68.48510 | 40802 ft | 482 kts | 170° |
| 2026-03-20 10:24 | 13.26058 | -68.47731 | 40924 ft | 482 kts | 170° |
| 2026-03-20 10:24 | 13.19536 | -68.46159 | 40943 ft | 481 kts | 170° |
| 2026-03-20 10:25 | 13.13065 | -68.44634 | 40940 ft | 480 kts | 170° |
| 2026-03-20 10:26 | 13.03283 | -68.42372 | 40942 ft | 480 kts | 170° |
| 2026-03-20 10:26 | 12.96756 | -68.40869 | 40940 ft | 480 kts | 170° |
| 2026-03-20 10:27 | 12.90281 | -68.39378 | 40936 ft | 480 kts | 170° |
| 2026-03-20 10:27 | 12.83756 | -68.37875 | 40938 ft | 480 kts | 170° |
| 2026-03-20 10:28 | 12.77237 | -68.36378 | 40935 ft | 480 kts | 170° |
| 2026-03-20 10:28 | 12.70718 | -68.34879 | 40931 ft | 480 kts | 170° |
| 2026-03-20 10:29 | 12.64202 | -68.33379 | 40933 ft | 480 kts | 170° |
| 2026-03-20 10:29 | 12.57735 | -68.31893 | 40936 ft | 480 kts | 170° |
| 2026-03-20 10:30 | 12.51221 | -68.30398 | 40936 ft | 479 kts | 170° |
| 2026-03-20 10:30 | 12.44713 | -68.28905 | 40932 ft | 479 kts | 170° |
| 2026-03-20 10:31 | 12.38209 | -68.27414 | 40926 ft | 479 kts | 170° |
| 2026-03-20 10:31 | 12.31756 | -68.25935 | 40919 ft | 479 kts | 170° |
| 2026-03-20 10:32 | 12.25253 | -68.24445 | 40913 ft | 479 kts | 170° |
| 2026-03-20 10:32 | 12.18758 | -68.22958 | 40911 ft | 479 kts | 170° |
| 2026-03-20 10:33 | 12.12260 | -68.21472 | 40912 ft | 479 kts | 170° |
| 2026-03-20 10:33 | 12.05800 | -68.20001 | 40911 ft | 478 kts | 170° |
| 2026-03-20 10:34 | 11.99308 | -68.18523 | 40916 ft | 478 kts | 170° |
| 2026-03-20 10:34 | 11.92809 | -68.17044 | 40929 ft | 478 kts | 170° |
| 2026-03-20 10:35 | 11.86314 | -68.15567 | 40932 ft | 478 kts | 170° |
| 2026-03-20 10:35 | 11.79853 | -68.14099 | 40941 ft | 479 kts | 170° |
| 2026-03-20 10:36 | 11.73352 | -68.12622 | 40943 ft | 479 kts | 170° |
| 2026-03-20 10:36 | 11.66853 | -68.11147 | 40944 ft | 479 kts | 170° |
| 2026-03-20 10:37 | 11.60351 | -68.09671 | 40943 ft | 478 kts | 170° |
| 2026-03-20 10:37 | 11.53855 | -68.08198 | 40944 ft | 479 kts | 170° |
| 2026-03-20 10:38 | 11.47399 | -68.06735 | 40939 ft | 478 kts | 169° |
| 2026-03-20 10:38 | 11.40900 | -68.05264 | 40947 ft | 478 kts | 169° |
| 2026-03-20 10:39 | 11.34409 | -68.03769 | 40938 ft | 478 kts | 169° |
| 2026-03-20 10:39 | 11.27912 | -68.02265 | 40940 ft | 478 kts | 169° |
| 2026-03-20 10:40 | 11.21426 | -68.00769 | 40939 ft | 478 kts | 169° |
| 2026-03-20 10:40 | 11.14983 | -67.99287 | 40940 ft | 478 kts | 169° |
| 2026-03-20 10:41 | 11.08495 | -67.97797 | 40938 ft | 478 kts | 169° |
| 2026-03-20 10:41 | 11.02004 | -67.96322 | 40938 ft | 478 kts | 169° |
| 2026-03-20 10:42 | 10.95521 | -67.94863 | 40939 ft | 477 kts | 169° |
| 2026-03-20 10:42 | 10.89029 | -67.93438 | 40940 ft | 477 kts | 169° |
| 2026-03-20 10:43 | 10.82590 | -67.92030 | 40943 ft | 476 kts | 169° |
| 2026-03-20 10:43 | 10.76110 | -67.90609 | 40938 ft | 476 kts | 169° |
| 2026-03-20 10:44 | 10.69639 | -67.89184 | 40942 ft | 476 kts | 169° |
| 2026-03-20 10:44 | 10.63176 | -67.87757 | 40944 ft | 475 kts | 169° |
| 2026-03-20 10:45 | 10.56756 | -67.86345 | 40957 ft | 475 kts | 169° |
| 2026-03-20 10:45 | 10.47067 | -67.84215 | 40966 ft | 475 kts | 168° |
| 2026-03-20 10:46 | 10.40562 | -67.82776 | 40959 ft | 481 kts | 168° |
| 2026-03-20 10:46 | 10.34015 | -67.81303 | 40962 ft | 482 kts | 168° |
| 2026-03-20 10:47 | 10.27508 | -67.79843 | 40967 ft | 482 kts | 168° |
| 2026-03-20 10:47 | 10.20965 | -67.78380 | 40965 ft | 482 kts | 168° |
| 2026-03-20 10:48 | 10.14416 | -67.76919 | 40964 ft | 482 kts | 168° |
| 2026-03-20 10:48 | 10.07867 | -67.75458 | 40961 ft | 481 kts | 168° |
| 2026-03-20 10:49 | 10.01326 | -67.74000 | 40952 ft | 482 kts | 168° |
| 2026-03-20 10:49 | 9.94822 | -67.72554 | 40954 ft | 482 kts | 168° |
| 2026-03-20 10:50 | 9.88276 | -67.71090 | 40942 ft | 482 kts | 168° |
| 2026-03-20 10:50 | 9.81730 | -67.69623 | 40940 ft | 482 kts | 168° |
| 2026-03-20 10:51 | 9.75179 | -67.68158 | 40937 ft | 482 kts | 168° |
| 2026-03-20 10:51 | 9.68676 | -67.66707 | 40926 ft | 482 kts | 168° |
| 2026-03-20 10:52 | 9.62125 | -67.65246 | 40919 ft | 482 kts | 168° |
| 2026-03-20 10:52 | 9.55569 | -67.63784 | 40917 ft | 482 kts | 168° |
| 2026-03-20 10:53 | 9.49018 | -67.62324 | 40910 ft | 482 kts | 168° |
| 2026-03-20 10:53 | 9.42459 | -67.60862 | 40913 ft | 482 kts | 168° |
| 2026-03-20 10:54 | 9.35949 | -67.59412 | 40909 ft | 482 kts | 168° |
| 2026-03-20 10:54 | 9.29399 | -67.57953 | 40914 ft | 482 kts | 168° |
| 2026-03-20 10:55 | 9.22854 | -67.56497 | 40909 ft | 481 kts | 168° |
| 2026-03-20 10:55 | 9.16308 | -67.55041 | 40909 ft | 481 kts | 168° |
| 2026-03-20 10:56 | 9.09825 | -67.53598 | 40906 ft | 480 kts | 168° |
| 2026-03-20 10:56 | 9.03313 | -67.52151 | 40908 ft | 479 kts | 168° |
| 2026-03-20 10:57 | 8.96805 | -67.50705 | 40910 ft | 478 kts | 168° |
| 2026-03-20 10:57 | 8.90316 | -67.49263 | 40910 ft | 477 kts | 168° |
| 2026-03-20 10:58 | 8.83878 | -67.47833 | 40910 ft | 477 kts | 167° |
| 2026-03-20 10:58 | 8.77403 | -67.46396 | 40912 ft | 476 kts | 167° |
| 2026-03-20 10:59 | 8.70936 | -67.44960 | 40906 ft | 476 kts | 167° |
| 2026-03-20 10:59 | 8.64472 | -67.43526 | 40908 ft | 475 kts | 167° |
| 2026-03-20 11:00 | 8.58058 | -67.42103 | 40909 ft | 475 kts | 167° |
| 2026-03-20 11:00 | 8.51607 | -67.40673 | 40908 ft | 474 kts | 167° |
| 2026-03-20 11:01 | 8.45165 | -67.39245 | 40905 ft | 474 kts | 167° |
| 2026-03-20 11:01 | 8.38706 | -67.37860 | 40906 ft | 474 kts | 171° |
| 2026-03-20 11:02 | 8.32132 | -67.37684 | 40907 ft | 474 kts | 185° |
| 2026-03-20 11:02 | 8.25623 | -67.38492 | 40907 ft | 475 kts | 187° |
| 2026-03-20 11:03 | 8.19082 | -67.39462 | 40902 ft | 475 kts | 188° |
| 2026-03-20 11:03 | 8.12537 | -67.40431 | 40911 ft | 475 kts | 187° |
| 2026-03-20 11:04 | 8.05990 | -67.41376 | 40903 ft | 475 kts | 187° |
| 2026-03-20 11:04 | 7.99483 | -67.42303 | 40903 ft | 475 kts | 187° |
| 2026-03-20 11:05 | 7.92936 | -67.43235 | 40900 ft | 475 kts | 187° |
| 2026-03-20 11:05 | 7.86386 | -67.44152 | 40897 ft | 475 kts | 186° |
| 2026-03-20 11:06 | 7.79793 | -67.44685 | 40896 ft | 475 kts | 182° |
| 2026-03-20 11:06 | 7.73198 | -67.45057 | 40897 ft | 475 kts | 182° |
| 2026-03-20 11:07 | 7.66648 | -67.45473 | 40898 ft | 475 kts | 183° |
| 2026-03-20 11:07 | 7.60059 | -67.45939 | 40894 ft | 475 kts | 183° |
| 2026-03-20 11:08 | 7.53468 | -67.46420 | 40893 ft | 475 kts | 183° |
| 2026-03-20 11:08 | 7.46885 | -67.46901 | 40890 ft | 474 kts | 183° |
| 2026-03-20 11:09 | 7.40343 | -67.47376 | 40891 ft | 474 kts | 183° |
| 2026-03-20 11:09 | 7.33764 | -67.47853 | 40889 ft | 474 kts | 183° |
| 2026-03-20 11:10 | 7.27185 | -67.48343 | 40888 ft | 474 kts | 183° |
| 2026-03-20 11:10 | 7.20609 | -67.48852 | 40886 ft | 474 kts | 184° |
| 2026-03-20 11:11 | 7.14035 | -67.49363 | 40886 ft | 474 kts | 183° |
| 2026-03-20 11:11 | 7.07500 | -67.49867 | 40883 ft | 474 kts | 183° |
| 2026-03-20 11:12 | 7.00924 | -67.50374 | 40872 ft | 474 kts | 183° |
| 2026-03-20 11:12 | 6.94354 | -67.50879 | 40876 ft | 474 kts | 183° |
| 2026-03-20 11:13 | 6.87772 | -67.51385 | 40871 ft | 474 kts | 183° |
| 2026-03-20 11:13 | 6.81233 | -67.51889 | 40872 ft | 475 kts | 183° |
| 2026-03-20 11:14 | 6.74640 | -67.52396 | 40869 ft | 475 kts | 183° |
| 2026-03-20 11:14 | 6.68047 | -67.52895 | 40867 ft | 475 kts | 183° |
| 2026-03-20 11:15 | 6.61493 | -67.53374 | 40864 ft | 476 kts | 183° |
| 2026-03-20 11:15 | 6.54892 | -67.53856 | 40865 ft | 476 kts | 183° |
| 2026-03-20 11:16 | 6.48288 | -67.54341 | 40856 ft | 475 kts | 183° |
| 2026-03-20 11:16 | 6.41697 | -67.54827 | 40846 ft | 475 kts | 183° |
| 2026-03-20 11:17 | 6.36215 | -67.55230 | 40842 ft | 475 kts | 183° |
| 2026-03-20 11:17 | 6.28556 | -67.55794 | 40833 ft | 475 kts | 183° |
| 2026-03-20 11:18 | 6.21970 | -67.56288 | 40830 ft | 474 kts | 183° |
| 2026-03-20 11:18 | 6.15395 | -67.56807 | 40828 ft | 474 kts | 183° |
| 2026-03-20 11:19 | 6.09928 | -67.57241 | 40833 ft | 474 kts | 183° |
| 2026-03-20 11:19 | 6.02283 | -67.57845 | 40841 ft | 474 kts | 183° |
| 2026-03-20 11:20 | 5.96816 | -67.58275 | 40848 ft | 474 kts | 183° |
| 2026-03-20 11:20 | 5.90239 | -67.58791 | 40857 ft | 474 kts | 183° |
| 2026-03-20 11:21 | 5.83666 | -67.59307 | 40864 ft | 474 kts | 183° |
| 2026-03-20 11:21 | 5.76021 | -67.59907 | 40862 ft | 474 kts | 183° |
| 2026-03-20 11:22 | 5.70555 | -67.60336 | 40863 ft | 474 kts | 183° |
| 2026-03-20 11:22 | 5.63970 | -67.60725 | 40861 ft | 473 kts | 177° |
| 2026-03-20 11:23 | 5.57506 | -67.59698 | 40865 ft | 470 kts | 163° |
| 2026-03-20 11:23 | 5.51240 | -67.57788 | 40865 ft | 471 kts | 161° |
| 2026-03-20 11:24 | 5.45053 | -67.55756 | 40866 ft | 471 kts | 161° |
| 2026-03-20 11:24 | 5.38828 | -67.53716 | 40868 ft | 471 kts | 161° |
| 2026-03-20 11:25 | 5.32593 | -67.51699 | 40870 ft | 471 kts | 161° |
| 2026-03-20 11:25 | 5.26346 | -67.49690 | 40873 ft | 471 kts | 161° |
| 2026-03-20 11:26 | 5.20111 | -67.47686 | 40876 ft | 471 kts | 161° |
| 2026-03-20 11:26 | 5.13917 | -67.45695 | 40879 ft | 470 kts | 161° |
| 2026-03-20 11:27 | 5.07692 | -67.43694 | 40880 ft | 470 kts | 161° |
| 2026-03-20 11:27 | 5.01461 | -67.41692 | 40879 ft | 470 kts | 161° |
| 2026-03-20 11:28 | 4.95229 | -67.39689 | 40882 ft | 470 kts | 161° |
| 2026-03-20 11:28 | 4.89032 | -67.37697 | 40885 ft | 471 kts | 161° |
| 2026-03-20 11:29 | 4.82789 | -67.35693 | 40889 ft | 471 kts | 161° |
| 2026-03-20 11:29 | 4.76543 | -67.33687 | 40888 ft | 471 kts | 161° |
| 2026-03-20 11:30 | 4.70338 | -67.31695 | 40889 ft | 472 kts | 161° |
| 2026-03-20 11:30 | 4.64086 | -67.29688 | 40890 ft | 472 kts | 161° |
| 2026-03-20 11:31 | 4.57832 | -67.27681 | 40889 ft | 472 kts | 161° |
| 2026-03-20 11:31 | 4.51572 | -67.25672 | 40889 ft | 472 kts | 161° |
| 2026-03-20 11:32 | 4.45314 | -67.23664 | 40886 ft | 472 kts | 161° |
| 2026-03-20 11:32 | 4.39105 | -67.21672 | 40886 ft | 472 kts | 161° |
| 2026-03-20 11:33 | 4.32845 | -67.19664 | 40887 ft | 472 kts | 161° |
| 2026-03-20 11:34 | 4.20372 | -67.15666 | 40884 ft | 472 kts | 161° |
| 2026-03-20 11:34 | 4.14117 | -67.13661 | 40878 ft | 472 kts | 161° |
| 2026-03-20 11:35 | 4.07859 | -67.11655 | 40880 ft | 472 kts | 161° |
| 2026-03-20 11:35 | 4.01603 | -67.09650 | 40879 ft | 472 kts | 161° |
| 2026-03-20 11:36 | 3.95350 | -67.07648 | 40881 ft | 472 kts | 161° |
| 2026-03-20 11:36 | 3.89129 | -67.05654 | 40877 ft | 472 kts | 161° |
| 2026-03-20 11:37 | 3.82879 | -67.03651 | 40881 ft | 472 kts | 160° |
| 2026-03-20 11:37 | 3.76618 | -67.01645 | 40880 ft | 473 kts | 160° |
| 2026-03-20 11:38 | 3.70346 | -66.99636 | 40881 ft | 473 kts | 160° |
| 2026-03-20 11:38 | 3.64119 | -66.97641 | 40882 ft | 473 kts | 160° |
| 2026-03-20 11:39 | 3.57849 | -66.95634 | 40883 ft | 474 kts | 160° |
| 2026-03-20 11:39 | 3.51567 | -66.93623 | 40884 ft | 474 kts | 160° |
| 2026-03-20 11:40 | 3.45286 | -66.91613 | 40882 ft | 474 kts | 160° |
| 2026-03-20 11:40 | 3.39009 | -66.89604 | 40886 ft | 474 kts | 160° |
| 2026-03-20 11:41 | 3.32769 | -66.87607 | 40886 ft | 474 kts | 160° |
| 2026-03-20 11:41 | 3.26489 | -66.85598 | 40887 ft | 474 kts | 160° |
| 2026-03-20 11:42 | 3.20212 | -66.83590 | 40887 ft | 474 kts | 160° |
| 2026-03-20 11:42 | 3.13933 | -66.81582 | 40886 ft | 474 kts | 160° |
| 2026-03-20 11:43 | 3.07697 | -66.79588 | 40888 ft | 473 kts | 160° |
| 2026-03-20 11:43 | 3.01425 | -66.77582 | 40890 ft | 473 kts | 160° |
| 2026-03-20 11:44 | 2.95152 | -66.75576 | 40888 ft | 473 kts | 160° |
| 2026-03-20 11:44 | 2.88873 | -66.73569 | 40890 ft | 473 kts | 160° |
| 2026-03-20 11:45 | 2.82642 | -66.71577 | 40889 ft | 473 kts | 160° |
| 2026-03-20 11:45 | 2.76372 | -66.69573 | 40894 ft | 473 kts | 160° |
| 2026-03-20 11:46 | 2.70098 | -66.67568 | 40892 ft | 473 kts | 160° |
| 2026-03-20 11:46 | 2.63828 | -66.65564 | 40890 ft | 473 kts | 160° |
| 2026-03-20 11:47 | 2.57602 | -66.63575 | 40895 ft | 473 kts | 160° |
| 2026-03-20 11:47 | 2.51334 | -66.61572 | 40893 ft | 473 kts | 160° |
| 2026-03-20 11:48 | 2.45074 | -66.59572 | 40894 ft | 473 kts | 160° |
| 2026-03-20 11:48 | 2.38810 | -66.57571 | 40891 ft | 472 kts | 160° |
| 2026-03-20 11:49 | 2.32548 | -66.55572 | 40892 ft | 472 kts | 160° |
| 2026-03-20 11:49 | 2.26330 | -66.53586 | 40895 ft | 472 kts | 160° |
| 2026-03-20 11:50 | 2.20075 | -66.51588 | 40897 ft | 472 kts | 160° |
| 2026-03-20 11:50 | 2.13824 | -66.49592 | 40891 ft | 472 kts | 160° |
| 2026-03-20 11:51 | 2.07572 | -66.47596 | 40889 ft | 471 kts | 160° |
| 2026-03-20 11:51 | 2.01368 | -66.45615 | 40891 ft | 471 kts | 160° |
| 2026-03-20 11:52 | 1.95130 | -66.43624 | 40893 ft | 470 kts | 160° |
| 2026-03-20 11:52 | 1.88898 | -66.41635 | 40893 ft | 470 kts | 160° |
| 2026-03-20 11:53 | 1.82667 | -66.39646 | 40895 ft | 470 kts | 160° |
| 2026-03-20 11:53 | 1.76440 | -66.37659 | 40890 ft | 470 kts | 160° |
| 2026-03-20 11:54 | 1.70248 | -66.35682 | 40894 ft | 470 kts | 160° |
| 2026-03-20 11:54 | 1.64026 | -66.33697 | 40891 ft | 470 kts | 160° |
| 2026-03-20 11:55 | 1.57796 | -66.31709 | 40894 ft | 470 kts | 160° |
| 2026-03-20 11:55 | 1.51575 | -66.29724 | 40892 ft | 469 kts | 160° |
| 2026-03-20 11:56 | 1.45397 | -66.27752 | 40894 ft | 469 kts | 160° |
| 2026-03-20 11:56 | 1.39178 | -66.25768 | 40898 ft | 469 kts | 160° |
| 2026-03-20 11:57 | 1.32960 | -66.23785 | 40894 ft | 469 kts | 159° |
| 2026-03-20 11:57 | 1.26750 | -66.21804 | 40899 ft | 469 kts | 159° |
| 2026-03-20 11:58 | 1.20579 | -66.19835 | 40898 ft | 468 kts | 159° |
| 2026-03-20 11:58 | 1.14376 | -66.17857 | 40906 ft | 468 kts | 159° |
| 2026-03-20 11:59 | 1.08178 | -66.15880 | 40907 ft | 468 kts | 159° |
| 2026-03-20 11:59 | 1.01982 | -66.13904 | 40917 ft | 467 kts | 159° |
| 2026-03-20 12:00 | 0.95828 | -66.11941 | 40917 ft | 467 kts | 159° |
| 2026-03-20 12:00 | 0.89647 | -66.09970 | 40919 ft | 467 kts | 159° |
| 2026-03-20 12:01 | 0.83457 | -66.08012 | 40920 ft | 467 kts | 161° |
| 2026-03-20 12:01 | 0.77011 | -66.07064 | 40924 ft | 473 kts | 177° |
| 2026-03-20 12:02 | 0.70475 | -66.07779 | 40916 ft | 478 kts | 185° |
| 2026-03-20 12:02 | 0.63916 | -66.08941 | 40918 ft | 479 kts | 187° |
| 2026-03-20 12:03 | 0.57355 | -66.10157 | 40910 ft | 479 kts | 186° |
| 2026-03-20 12:03 | 0.50793 | -66.11344 | 40911 ft | 479 kts | 186° |
| 2026-03-20 12:04 | 0.44225 | -66.12509 | 40909 ft | 479 kts | 186° |
| 2026-03-20 12:04 | 0.37696 | -66.13662 | 40904 ft | 479 kts | 186° |
| 2026-03-20 12:05 | 0.31128 | -66.14823 | 40905 ft | 480 kts | 186° |
| 2026-03-20 12:05 | 0.24553 | -66.15986 | 40908 ft | 480 kts | 186° |
| 2026-03-20 12:06 | 0.17978 | -66.17150 | 40903 ft | 480 kts | 186° |